createdAt,value
2022-10-01T00:01:17.282Z,20.23
2022-10-01T00:03:44.180Z,18.52
2022-10-01T00:06:19.735Z,16.95
2022-10-01T00:08:48.377Z,11.88
2022-10-01T00:11:16.929Z,19.60
2022-10-01T00:13:43.170Z,17.33
2022-10-01T00:16:12.885Z,20.05
2022-10-01T00:18:42.318Z,28.80
2022-10-01T00:21:11.092Z,16.45
2022-10-01T00:23:39.015Z,19.52
2022-10-01T00:26:17.550Z,16.00
2022-10-01T00:28:46.804Z,25.75
2022-10-01T00:31:15.020Z,20.27
2022-10-01T00:33:42.215Z,23.75
2022-10-01T00:36:10.110Z,20.63
2022-10-01T00:38:39.471Z,15.25
2022-10-01T00:41:06.906Z,23.40
2022-10-01T00:43:37.246Z,19.90
2022-10-01T00:46:17.791Z,22.45
2022-10-01T00:49:00.402Z,23.75
2022-10-01T00:51:31.621Z,17.05
2022-10-01T00:54:12.885Z,19.13
2022-10-01T00:56:39.841Z,18.75
2022-10-01T00:59:07.360Z,17.75
2022-10-01T01:01:36.835Z,17.55
2022-10-01T01:04:03.939Z,16.85
2022-10-01T01:06:30.553Z,11.98
2022-10-01T01:08:56.890Z,13.27
2022-10-01T01:11:57.831Z,12.02
2022-10-01T01:14:28.751Z,12.80
2022-10-01T01:17:14.254Z,14.52
2022-10-01T01:19:58.559Z,14.07
2022-10-01T01:22:31.986Z,16.88
2022-10-01T01:25:19.096Z,18.98
2022-10-01T01:27:59.938Z,14.05
2022-10-01T01:30:26.375Z,9.35
2022-10-01T01:32:56.598Z,16.02
2022-10-01T01:35:31.538Z,7.75
2022-10-01T01:38:09.733Z,9.27
2022-10-01T01:40:39.448Z,10.00
2022-10-01T01:43:11.320Z,11.63
2022-10-01T01:45:39.370Z,9.50
2022-10-01T01:48:08.667Z,11.20
2022-10-01T01:50:43.879Z,12.93
2022-10-01T01:53:10.679Z,9.27
2022-10-01T01:55:38.279Z,11.10
2022-10-01T01:58:04.695Z,13.55
2022-10-01T02:00:31.095Z,10.95
2022-10-01T02:02:58.496Z,10.77
2022-10-01T02:05:28.474Z,12.00
2022-10-01T02:08:21.350Z,11.50
2022-10-01T02:11:09.922Z,7.95
2022-10-01T02:13:38.345Z,9.35
2022-10-01T02:16:32.677Z,14.68
2022-10-01T02:19:01.022Z,9.05
2022-10-01T02:21:41.538Z,5.22
2022-10-01T02:24:20.979Z,8.88
2022-10-01T02:26:48.429Z,8.45
2022-10-01T02:29:17.974Z,8.95
2022-10-01T02:31:46.692Z,8.63
2022-10-01T02:34:20.000Z,10.40
2022-10-01T02:36:49.384Z,10.25
2022-10-01T02:39:17.967Z,9.38
2022-10-01T02:41:47.185Z,8.00
2022-10-01T02:44:17.928Z,5.60
2022-10-01T02:46:59.909Z,6.22
2022-10-01T02:49:30.713Z,7.28
2022-10-01T02:52:16.477Z,4.90
2022-10-01T02:54:50.297Z,12.20
2022-10-01T02:57:23.424Z,5.80
2022-10-01T02:59:57.257Z,6.55
2022-10-01T03:02:27.094Z,7.05
2022-10-01T03:04:56.980Z,4.55
2022-10-01T03:07:24.823Z,8.88
2022-10-01T03:09:51.289Z,10.07
2022-10-01T03:12:17.926Z,8.10
2022-10-01T03:14:45.159Z,6.95
2022-10-01T03:17:13.383Z,7.82
2022-10-01T03:19:39.867Z,7.32
2022-10-01T03:22:07.720Z,8.38
2022-10-01T03:24:33.950Z,9.50
2022-10-01T03:27:00.367Z,8.10
2022-10-01T03:29:26.661Z,10.43
2022-10-01T03:31:54.826Z,8.60
2022-10-01T03:34:21.296Z,8.48
2022-10-01T03:36:47.889Z,9.00
2022-10-01T03:39:14.084Z,9.98
2022-10-01T03:41:40.225Z,11.68
2022-10-01T03:44:06.800Z,10.65
2022-10-01T03:46:32.876Z,10.48
2022-10-01T03:49:00.517Z,14.15
2022-10-01T03:51:28.583Z,11.77
2022-10-01T03:53:55.811Z,14.48
2022-10-01T03:56:22.326Z,14.50
2022-10-01T03:58:48.673Z,15.57
2022-10-01T04:01:15.972Z,15.43
2022-10-01T04:03:43.177Z,14.13
2022-10-01T04:06:09.830Z,17.88
2022-10-01T04:08:37.352Z,15.70
2022-10-01T04:11:05.380Z,16.08
2022-10-01T04:13:32.474Z,17.75
2022-10-01T04:15:58.610Z,20.65
2022-10-01T04:18:25.076Z,18.50
2022-10-01T04:20:51.476Z,17.60
2022-10-01T04:23:19.918Z,19.75
2022-10-01T04:25:46.054Z,17.77
2022-10-01T04:28:13.665Z,18.70
2022-10-01T04:30:42.262Z,19.40
2022-10-01T04:33:11.771Z,20.27
2022-10-01T04:35:39.122Z,24.80
2022-10-01T04:38:08.005Z,22.85
2022-10-01T04:40:35.869Z,21.42
2022-10-01T04:43:03.326Z,33.55
2022-10-01T04:45:30.765Z,25.52
2022-10-01T04:47:59.285Z,26.30
2022-10-01T04:50:27.748Z,25.70
2022-10-01T04:52:54.133Z,26.20
2022-10-01T04:55:21.498Z,26.40
2022-10-01T04:57:49.059Z,26.50
2022-10-01T05:00:21.546Z,29.75
2022-10-01T05:02:48.949Z,27.48
2022-10-01T05:05:16.463Z,26.15
2022-10-01T05:07:44.344Z,31.73
2022-10-01T05:10:14.244Z,41.05
2022-10-01T05:12:40.885Z,36.33
2022-10-01T05:15:07.748Z,45.50
2022-10-01T05:17:34.389Z,41.55
2022-10-01T05:20:02.398Z,33.30
2022-10-01T05:22:28.475Z,42.20
2022-10-01T05:24:54.668Z,28.85
2022-10-01T05:27:23.418Z,31.10
2022-10-01T05:29:50.146Z,36.40
2022-10-01T05:32:17.171Z,28.02
2022-10-01T05:34:43.263Z,32.38
2022-10-01T05:37:10.509Z,31.73
2022-10-01T05:39:37.195Z,37.83
2022-10-01T05:42:06.349Z,32.40
2022-10-01T05:44:37.442Z,29.90
2022-10-01T05:47:05.903Z,25.65
2022-10-01T05:49:33.312Z,27.23
2022-10-01T05:52:02.581Z,31.20
2022-10-01T05:54:29.140Z,35.55
2022-10-01T05:56:56.859Z,32.65
2022-10-01T05:59:27.332Z,28.85
2022-10-01T06:01:56.073Z,21.92
2022-10-01T06:04:22.241Z,28.55
2022-10-01T06:06:48.640Z,33.80
2022-10-01T06:09:15.139Z,31.10
2022-10-01T06:11:41.883Z,36.17
2022-10-01T06:14:07.954Z,35.30
2022-10-01T06:16:35.192Z,36.67
2022-10-01T06:19:01.492Z,28.48
2022-10-01T06:21:27.881Z,31.15
2022-10-01T06:23:54.473Z,32.80
2022-10-01T06:26:21.047Z,39.67
2022-10-01T06:28:52.316Z,41.67
2022-10-01T06:31:19.416Z,41.60
2022-10-01T06:33:45.552Z,44.15
2022-10-01T06:36:11.707Z,37.38
2022-10-01T06:38:38.120Z,40.45
2022-10-01T06:41:04.688Z,44.30
2022-10-01T06:43:32.358Z,44.38
2022-10-01T06:46:03.389Z,38.65
2022-10-01T06:48:31.229Z,48.58
2022-10-01T06:50:59.927Z,40.15
2022-10-01T06:53:27.762Z,42.92
2022-10-01T06:55:54.331Z,43.05
2022-10-01T06:58:22.868Z,41.95
2022-10-01T07:00:49.614Z,39.88
2022-10-01T07:03:20.424Z,44.55
2022-10-01T07:05:47.548Z,48.05
2022-10-01T07:08:13.881Z,40.75
2022-10-01T07:10:40.935Z,49.97
2022-10-01T07:13:08.152Z,37.08
2022-10-01T07:15:34.320Z,39.83
2022-10-01T07:18:00.602Z,41.13
2022-10-01T07:20:27.135Z,33.58
2022-10-01T07:22:57.946Z,33.83
2022-10-01T07:25:25.136Z,31.70
2022-10-01T07:27:56.362Z,38.35
2022-10-01T07:30:23.509Z,33.78
2022-10-01T07:32:49.833Z,46.00
2022-10-01T07:35:19.692Z,35.67
2022-10-01T07:37:49.944Z,35.60
2022-10-01T07:40:17.495Z,34.05
2022-10-01T07:42:55.087Z,41.33
2022-10-01T07:45:25.276Z,44.63
2022-10-01T07:48:01.170Z,39.88
2022-10-01T07:50:29.839Z,35.70
2022-10-01T07:52:57.806Z,31.50
2022-10-01T07:55:26.336Z,22.48
2022-10-01T07:57:54.451Z,21.40
2022-10-01T08:00:22.787Z,26.75
2022-10-01T08:02:55.546Z,24.33
2022-10-01T08:05:24.314Z,19.25
2022-10-01T08:07:50.958Z,34.65
2022-10-01T08:10:22.842Z,25.67
2022-10-01T08:12:49.055Z,17.05
2022-10-01T08:15:17.508Z,14.73
2022-10-01T08:17:44.721Z,20.35
2022-10-01T08:20:12.563Z,15.70
2022-10-01T08:22:42.089Z,13.02
2022-10-01T08:25:08.938Z,10.45
2022-10-01T08:27:35.194Z,13.75
2022-10-01T08:30:01.324Z,10.68
2022-10-01T08:32:27.560Z,8.57
2022-10-01T08:34:59.176Z,9.15
2022-10-01T08:37:30.365Z,18.08
2022-10-01T08:39:56.586Z,9.45
2022-10-01T08:42:32.665Z,14.88
2022-10-01T08:45:03.660Z,9.82
2022-10-01T08:47:47.318Z,11.35
2022-10-01T08:50:35.532Z,10.00
2022-10-01T08:53:05.111Z,10.65
2022-10-01T08:55:35.957Z,8.02
2022-10-01T08:58:05.649Z,11.45
2022-10-01T09:00:34.763Z,10.32
2022-10-01T09:03:05.708Z,11.43
2022-10-01T09:05:53.897Z,6.50
2022-10-01T09:08:43.023Z,6.63
2022-10-01T09:11:21.338Z,12.00
2022-10-01T09:14:11.948Z,11.50
2022-10-01T09:17:03.725Z,11.07
2022-10-01T09:19:32.818Z,8.63
2022-10-01T09:22:05.443Z,12.30
2022-10-01T09:24:41.074Z,10.60
2022-10-01T09:27:27.208Z,9.68
2022-10-01T09:30:02.057Z,12.20
2022-10-01T09:32:52.699Z,11.07
2022-10-01T09:35:54.153Z,12.77
2022-10-01T09:38:43.238Z,8.65
2022-10-01T09:41:11.021Z,11.40
2022-10-01T09:43:39.684Z,21.50
2022-10-01T09:46:12.752Z,13.88
2022-10-01T09:49:01.618Z,12.98
2022-10-01T09:51:52.128Z,13.27
2022-10-01T09:54:46.382Z,10.57
2022-10-01T09:57:21.560Z,10.45
2022-10-01T09:59:55.677Z,9.07
2022-10-01T10:02:33.709Z,10.45
2022-10-01T10:05:05.475Z,12.07
2022-10-01T10:07:34.153Z,16.73
2022-10-01T10:10:26.890Z,13.95
2022-10-01T10:13:07.265Z,9.77
2022-10-01T10:15:35.293Z,15.67
2022-10-01T10:18:12.479Z,9.50
2022-10-01T10:20:43.723Z,13.45
2022-10-01T10:23:18.858Z,13.15
2022-10-01T10:26:02.982Z,8.73
2022-10-01T10:28:44.108Z,14.63
2022-10-01T10:31:15.568Z,12.63
2022-10-01T10:36:19.278Z,10.77
2022-10-01T10:38:50.380Z,13.45
2022-10-01T10:41:21.884Z,10.38
2022-10-01T10:43:48.627Z,7.18
2022-10-01T10:46:26.569Z,9.40
2022-10-01T10:49:05.512Z,9.18
2022-10-01T10:51:48.109Z,7.88
2022-10-01T10:54:19.865Z,8.10
2022-10-01T10:57:02.687Z,5.97
2022-10-01T10:59:33.432Z,6.88
2022-10-01T11:04:39.533Z,7.95
2022-10-01T11:07:09.921Z,8.68
2022-10-01T11:09:53.076Z,11.48
2022-10-01T11:12:49.888Z,11.20
2022-10-01T11:16:01.001Z,12.50
2022-10-01T11:18:39.308Z,12.05
2022-10-01T11:21:28.920Z,8.10
2022-10-01T11:24:10.768Z,10.10
2022-10-01T11:27:01.798Z,9.23
2022-10-01T11:29:34.889Z,16.35
2022-10-01T11:32:38.888Z,9.95
2022-10-01T11:35:12.737Z,15.02
2022-10-01T11:38:06.108Z,12.30
2022-10-01T11:40:38.925Z,8.73
2022-10-01T11:43:42.993Z,12.60
2022-10-01T11:46:14.637Z,10.65
2022-10-01T11:48:48.542Z,22.75
2022-10-01T11:51:23.786Z,9.48
2022-10-01T11:53:58.420Z,7.75
2022-10-01T11:56:49.015Z,15.13
2022-10-01T11:59:22.937Z,13.25
2022-10-01T12:02:18.084Z,13.57
2022-10-01T12:04:51.414Z,10.43
2022-10-01T12:07:28.854Z,13.48
2022-10-01T12:09:55.031Z,9.55
2022-10-01T12:12:59.835Z,13.15
2022-10-01T12:15:32.406Z,9.35
2022-10-01T12:18:18.027Z,11.23
2022-10-01T12:20:51.131Z,11.20
2022-10-01T12:23:26.978Z,11.30
2022-10-01T12:26:21.130Z,13.25
2022-10-01T12:29:01.784Z,13.32
2022-10-01T12:32:23.485Z,12.80
2022-10-01T12:35:27.282Z,11.82
2022-10-01T12:38:08.423Z,7.47
2022-10-01T12:43:26.960Z,10.60
2022-10-01T12:46:41.718Z,11.43
2022-10-01T12:49:28.404Z,11.20
2022-10-01T12:52:10.230Z,9.52
2022-10-01T12:54:42.270Z,10.85
2022-10-01T12:57:11.160Z,12.88
2022-10-01T13:00:01.873Z,14.00
2022-10-01T13:03:04.730Z,13.95
2022-10-01T13:05:56.524Z,14.20
2022-10-01T13:08:44.362Z,10.45
2022-10-01T13:11:25.794Z,13.85
2022-10-01T13:13:54.703Z,11.52
2022-10-01T13:16:36.278Z,12.77
2022-10-01T13:19:13.792Z,13.13
2022-10-01T13:22:07.141Z,12.30
2022-10-01T13:24:45.576Z,13.20
2022-10-01T13:27:56.666Z,13.07
2022-10-01T13:30:25.981Z,21.00
2022-10-01T13:33:04.583Z,10.45
2022-10-01T13:35:44.118Z,13.50
2022-10-01T13:38:28.601Z,15.50
2022-10-01T13:41:01.350Z,18.27
2022-10-01T13:43:29.920Z,15.88
2022-10-01T13:46:08.349Z,15.63
2022-10-01T13:48:44.966Z,16.10
2022-10-01T13:51:13.692Z,15.13
2022-10-01T13:53:43.127Z,14.18
2022-10-01T13:56:14.360Z,12.30
2022-10-01T14:01:24.276Z,16.63
2022-10-01T14:04:32.527Z,10.40
2022-10-01T14:07:15.208Z,16.80
2022-10-01T14:09:53.866Z,13.32
2022-10-01T14:12:44.045Z,15.43
2022-10-01T14:15:44.205Z,10.38
2022-10-01T14:18:18.523Z,9.45
2022-10-01T14:21:21.806Z,13.07
2022-10-01T14:24:04.695Z,12.55
2022-10-01T14:27:00.284Z,11.27
2022-10-01T14:30:04.484Z,10.10
2022-10-01T14:33:08.312Z,14.90
2022-10-01T14:36:13.727Z,15.07
2022-10-01T14:38:40.140Z,18.63
2022-10-01T14:41:19.743Z,16.33
2022-10-01T14:43:46.266Z,20.60
2022-10-01T14:46:18.365Z,9.60
2022-10-01T14:48:58.445Z,14.52
2022-10-01T14:51:28.625Z,12.13
2022-10-01T14:53:58.831Z,18.80
2022-10-01T14:56:27.554Z,13.75
2022-10-01T14:59:01.373Z,11.20
2022-10-01T15:01:28.112Z,16.35
2022-10-01T15:03:54.602Z,16.60
2022-10-01T15:06:29.565Z,17.73
2022-10-01T15:09:12.119Z,14.45
2022-10-01T15:11:44.308Z,11.52
2022-10-01T15:14:17.800Z,12.93
2022-10-01T15:16:44.850Z,12.55
2022-10-01T15:19:17.993Z,23.45
2022-10-01T15:21:51.837Z,18.50
2022-10-01T15:24:36.301Z,13.00
2022-10-01T15:27:03.070Z,17.60
2022-10-01T15:29:29.603Z,18.02
2022-10-01T15:31:57.752Z,15.95
2022-10-01T15:34:28.528Z,13.10
2022-10-01T15:36:55.943Z,16.55
2022-10-01T15:39:40.647Z,12.85
2022-10-01T15:42:24.324Z,15.15
2022-10-01T15:44:59.031Z,19.85
2022-10-01T15:47:34.433Z,14.55
2022-10-01T15:50:10.131Z,10.88
2022-10-01T15:52:55.370Z,15.43
2022-10-01T15:55:42.155Z,10.10
2022-10-01T15:58:27.346Z,11.90
2022-10-01T16:01:10.137Z,8.43
2022-10-01T16:03:40.128Z,15.43
2022-10-01T16:06:16.333Z,15.82
2022-10-01T16:09:04.777Z,16.88
2022-10-01T16:11:31.643Z,16.83
2022-10-01T16:14:22.625Z,10.93
2022-10-01T16:16:50.492Z,10.30
2022-10-01T16:19:28.351Z,18.35
2022-10-01T16:22:14.022Z,15.90
2022-10-01T16:24:55.343Z,9.95
2022-10-01T16:27:23.042Z,8.18
2022-10-01T16:29:52.913Z,13.68
2022-10-01T16:32:19.115Z,9.73
2022-10-01T16:34:46.774Z,10.10
2022-10-01T16:37:12.982Z,13.32
2022-10-01T16:39:39.133Z,14.48
2022-10-01T16:42:22.899Z,15.20
2022-10-01T16:44:51.047Z,8.82
2022-10-01T16:47:19.445Z,12.75
2022-10-01T16:49:49.896Z,12.30
2022-10-01T16:52:16.193Z,11.97
2022-10-01T16:54:44.188Z,13.07
2022-10-01T16:57:10.717Z,13.75
2022-10-01T16:59:37.028Z,12.27
2022-10-01T17:02:03.294Z,12.52
2022-10-01T17:04:34.065Z,12.60
2022-10-01T17:07:00.649Z,17.23
2022-10-01T17:09:26.811Z,7.32
2022-10-01T17:11:53.284Z,11.40
2022-10-01T17:14:20.598Z,13.90
2022-10-01T17:16:50.250Z,18.17
2022-10-01T17:19:19.855Z,12.95
2022-10-01T17:21:46.718Z,13.10
2022-10-01T17:24:13.287Z,15.68
2022-10-01T17:26:47.592Z,15.10
2022-10-01T17:29:13.973Z,20.25
2022-10-01T17:31:43.968Z,13.45
2022-10-01T17:34:10.137Z,23.02
2022-10-01T17:36:39.062Z,20.90
2022-10-01T17:39:05.110Z,18.35
2022-10-01T17:41:31.972Z,15.02
2022-10-01T17:43:58.844Z,15.35
2022-10-01T17:46:26.026Z,14.30
2022-10-01T17:48:52.119Z,16.98
2022-10-01T17:51:20.871Z,23.25
2022-10-01T17:53:47.382Z,20.73
2022-10-01T17:56:16.332Z,18.80
2022-10-01T17:58:45.631Z,19.67
2022-10-01T18:01:16.245Z,21.77
2022-10-01T18:03:42.511Z,17.23
2022-10-01T18:06:12.850Z,15.02
2022-10-01T18:08:54.536Z,22.13
2022-10-01T18:11:22.329Z,18.30
2022-10-01T18:13:50.170Z,22.08
2022-10-01T18:16:19.283Z,16.10
2022-10-01T18:19:51.873Z,20.38
2022-10-01T18:21:32.202Z,24.30
2022-10-01T18:24:01.961Z,21.08
2022-10-01T18:26:31.098Z,23.52
2022-10-01T18:28:57.388Z,23.85
2022-10-01T18:31:25.989Z,19.00
2022-10-01T18:33:55.774Z,22.73
2022-10-01T18:36:26.409Z,17.50
2022-10-01T18:39:09.634Z,29.52
2022-10-01T18:41:38.428Z,26.95
2022-10-01T18:44:19.952Z,28.85
2022-10-01T18:46:50.473Z,21.73
2022-10-01T18:49:45.571Z,19.15
2022-10-01T18:52:39.806Z,16.15
2022-10-01T18:55:21.357Z,21.48
2022-10-01T18:58:19.517Z,19.38
2022-10-01T19:00:53.580Z,25.00
2022-10-01T19:03:45.277Z,24.27
2022-10-01T19:06:11.348Z,18.63
2022-10-01T19:08:52.549Z,20.60
2022-10-01T19:11:54.846Z,20.85
2022-10-01T19:14:45.407Z,20.80
2022-10-01T19:17:29.981Z,19.50
2022-10-01T19:20:19.387Z,25.05
2022-10-01T19:23:03.079Z,20.67
2022-10-01T19:25:46.924Z,17.90
2022-10-01T19:28:34.880Z,23.48
2022-10-01T19:31:30.690Z,16.83
2022-10-01T19:34:21.146Z,18.08
2022-10-01T19:36:53.851Z,16.75
2022-10-01T19:39:25.090Z,20.92
2022-10-01T19:41:57.671Z,29.40
2022-10-01T19:44:53.991Z,28.23
2022-10-01T19:47:41.729Z,13.70
2022-10-01T19:50:31.998Z,24.15
2022-10-01T19:53:00.706Z,14.73
2022-10-01T19:55:32.139Z,14.52
2022-10-01T19:58:02.445Z,14.45
2022-10-01T20:00:31.674Z,24.90
2022-10-01T20:03:12.495Z,20.23
2022-10-01T20:06:21.287Z,16.13
2022-10-01T20:08:53.086Z,18.20
2022-10-01T20:11:20.206Z,17.02
2022-10-01T20:14:00.739Z,17.73
2022-10-01T20:16:40.023Z,12.43
2022-10-01T20:19:26.515Z,18.60
2022-10-01T20:22:34.344Z,14.15
2022-10-01T20:25:15.265Z,9.63
2022-10-01T20:27:49.290Z,16.92
2022-10-01T20:30:32.827Z,10.95
2022-10-01T20:33:15.850Z,18.30
2022-10-01T20:36:00.234Z,18.58
2022-10-01T20:38:48.190Z,14.13
2022-10-01T20:41:19.936Z,15.23
2022-10-01T20:44:00.978Z,17.05
2022-10-01T20:46:40.001Z,19.50
2022-10-01T20:49:45.723Z,22.27
2022-10-01T20:52:49.589Z,12.55
2022-10-01T20:55:28.086Z,19.85
2022-10-01T20:58:04.443Z,19.60
2022-10-01T21:00:30.586Z,22.75
2022-10-01T21:03:31.093Z,19.45
2022-10-01T21:06:29.663Z,20.42
2022-10-01T21:08:59.034Z,22.35
2022-10-01T21:11:33.846Z,23.20
2022-10-01T21:14:12.054Z,13.10
2022-10-01T21:17:29.213Z,25.08
2022-10-01T21:20:07.588Z,19.15
2022-10-01T21:22:37.366Z,16.80
2022-10-01T21:25:18.314Z,17.05
2022-10-01T21:27:59.648Z,22.48
2022-10-01T21:30:52.316Z,26.20
2022-10-01T21:33:25.193Z,22.95
2022-10-01T21:36:13.378Z,20.48
2022-10-01T21:38:48.625Z,24.77
2022-10-01T21:41:48.724Z,18.65
2022-10-01T21:44:33.387Z,24.70
2022-10-01T21:47:32.093Z,31.10
2022-10-01T21:50:24.133Z,23.38
2022-10-01T21:52:57.985Z,25.15
2022-10-01T21:55:49.025Z,33.40
2022-10-01T21:58:56.081Z,23.27
2022-10-01T22:02:15.837Z,39.95
2022-10-01T22:04:59.877Z,38.55
2022-10-01T22:07:34.759Z,26.70
2022-10-01T22:10:09.471Z,35.08
2022-10-01T22:12:39.803Z,45.78
2022-10-01T22:15:38.944Z,32.33
2022-10-01T22:18:09.880Z,43.60
2022-10-01T22:20:46.083Z,33.67
2022-10-01T22:23:17.490Z,40.60
2022-10-01T22:26:00.548Z,36.00
2022-10-01T22:28:33.611Z,33.60
2022-10-01T22:31:02.942Z,40.90
2022-10-01T22:33:38.090Z,47.75
2022-10-01T22:36:21.927Z,44.67
2022-10-01T22:38:56.513Z,24.75
2022-10-01T22:41:33.805Z,37.85
2022-10-01T22:44:06.300Z,47.55
2022-10-01T22:47:00.742Z,42.58
2022-10-01T22:50:01.883Z,35.53
2022-10-01T22:52:27.961Z,32.53
2022-10-01T22:55:06.748Z,39.47
2022-10-01T22:57:56.772Z,32.92
2022-10-01T23:00:23.728Z,43.33
2022-10-01T23:03:17.363Z,30.27
2022-10-01T23:06:01.285Z,29.88
2022-10-01T23:09:07.463Z,28.63
2022-10-01T23:11:55.273Z,30.45
2022-10-01T23:14:30.668Z,31.05
2022-10-01T23:16:59.908Z,23.25
2022-10-01T23:19:32.040Z,41.10
2022-10-01T23:22:05.830Z,26.77
2022-10-01T23:24:41.166Z,31.75
2022-10-01T23:27:20.758Z,35.55
2022-10-01T23:30:11.174Z,31.05
2022-10-01T23:33:05.291Z,33.70
2022-10-01T23:36:04.792Z,27.90
2022-10-01T23:38:31.339Z,33.45
2022-10-01T23:41:40.200Z,29.60
2022-10-01T23:44:49.529Z,33.53
2022-10-01T23:47:23.966Z,31.90
2022-10-01T23:49:55.482Z,19.60
2022-10-01T23:55:51.033Z,26.77
2022-10-01T23:58:20.970Z,20.45
